sensor_id;sensor_type;location;lat;lon;timestamp;temperature;humidity
20041;DHT22;10181;48.072;9.884;2024-03-25T00:02:13;2.80;99.90
20041;DHT22;10181;48.072;9.884;2024-03-25T00:04:38;2.80;99.90
20041;DHT22;10181;48.072;9.884;2024-03-25T00:07:04;2.80;99.90
20041;DHT22;10181;48.072;9.884;2024-03-25T00:09:30;2.70;99.90
20041;DHT22;10181;48.072;9.884;2024-03-25T00:11:56;2.60;99.90
20041;DHT22;10181;48.072;9.884;2024-03-25T00:14:22;2.50;99.90
20041;DHT22;10181;48.072;9.884;2024-03-25T00:16:47;2.50;99.90
20041;DHT22;10181;48.072;9.884;2024-03-25T00:19:13;2.40;99.90
20041;DHT22;10181;48.072;9.884;2024-03-25T00:21:39;2.40;99.90
20041;DHT22;10181;48.072;9.884;2024-03-25T00:24:04;2.30;99.90
20041;DHT22;10181;48.072;9.884;2024-03-25T00:26:30;2.40;99.90
20041;DHT22;10181;48.072;9.884;2024-03-25T00:28:56;2.30;99.90
20041;DHT22;10181;48.072;9.884;2024-03-25T00:31:21;2.40;99.90
20041;DHT22;10181;48.072;9.884;2024-03-25T00:33:47;2.30;99.90
20041;DHT22;10181;48.072;9.884;2024-03-25T00:36:13;2.30;99.90
20041;DHT22;10181;48.072;9.884;2024-03-25T00:38:38;2.30;99.90
20041;DHT22;10181;48.072;9.884;2024-03-25T00:41:04;2.20;99.90
20041;DHT22;10181;48.072;9.884;2024-03-25T00:43:30;2.20;99.90
20041;DHT22;10181;48.072;9.884;2024-03-25T00:45:55;2.20;99.90
20041;DHT22;10181;48.072;9.884;2024-03-25T00:48:22;2.20;99.90
20041;DHT22;10181;48.072;9.884;2024-03-25T00:50:48;2.20;99.90
20041;DHT22;10181;48.072;9.884;2024-03-25T00:53:14;2.20;99.90
20041;DHT22;10181;48.072;9.884;2024-03-25T00:55:40;2.20;99.90
20041;DHT22;10181;48.072;9.884;2024-03-25T00:58:06;2.20;99.90
20041;DHT22;10181;48.072;9.884;2024-03-25T01:00:31;2.20;99.90
20041;DHT22;10181;48.072;9.884;2024-03-25T01:02:57;2.20;99.90
20041;DHT22;10181;48.072;9.884;2024-03-25T01:05:23;2.20;99.90
20041;DHT22;10181;48.072;9.884;2024-03-25T01:07:48;2.20;99.90
20041;DHT22;10181;48.072;9.884;2024-03-25T01:10:15;2.20;99.90
20041;DHT22;10181;48.072;9.884;2024-03-25T01:12:41;2.20;99.90
20041;DHT22;10181;48.072;9.884;2024-03-25T01:15:07;2.30;99.90
20041;DHT22;10181;48.072;9.884;2024-03-25T01:17:35;2.20;99.90
20041;DHT22;10181;48.072;9.884;2024-03-25T01:20:01;2.30;99.90
20041;DHT22;10181;48.072;9.884;2024-03-25T01:22:27;2.30;99.90
20041;DHT22;10181;48.072;9.884;2024-03-25T01:24:52;2.30;99.90
20041;DHT22;10181;48.072;9.884;2024-03-25T01:27:18;2.30;99.90
20041;DHT22;10181;48.072;9.884;2024-03-25T01:29:44;2.30;99.90
20041;DHT22;10181;48.072;9.884;2024-03-25T01:32:10;2.30;99.90
20041;DHT22;10181;48.072;9.884;2024-03-25T01:34:35;2.30;99.90
20041;DHT22;10181;48.072;9.884;2024-03-25T01:37:01;2.30;99.90
20041;DHT22;10181;48.072;9.884;2024-03-25T01:39:27;2.30;99.90
20041;DHT22;10181;48.072;9.884;2024-03-25T01:41:52;2.30;99.90
20041;DHT22;10181;48.072;9.884;2024-03-25T01:44:18;2.30;99.90
20041;DHT22;10181;48.072;9.884;2024-03-25T01:46:44;2.30;99.90
20041;DHT22;10181;48.072;9.884;2024-03-25T01:49:10;2.30;99.90
20041;DHT22;10181;48.072;9.884;2024-03-25T01:51:37;2.30;99.90
20041;DHT22;10181;48.072;9.884;2024-03-25T01:54:04;2.30;99.90
20041;DHT22;10181;48.072;9.884;2024-03-25T01:56:32;2.30;99.90
20041;DHT22;10181;48.072;9.884;2024-03-25T01:58:59;2.20;99.90
20041;DHT22;10181;48.072;9.884;2024-03-25T02:01:25;2.20;99.90
20041;DHT22;10181;48.072;9.884;2024-03-25T02:03:53;2.20;99.90
20041;DHT22;10181;48.072;9.884;2024-03-25T02:06:20;2.20;99.90
20041;DHT22;10181;48.072;9.884;2024-03-25T02:08:47;2.20;99.90
20041;DHT22;10181;48.072;9.884;2024-03-25T02:11:14;2.20;99.90
20041;DHT22;10181;48.072;9.884;2024-03-25T02:13:40;2.10;99.90
20041;DHT22;10181;48.072;9.884;2024-03-25T02:16:06;2.10;99.90
20041;DHT22;10181;48.072;9.884;2024-03-25T02:18:32;2.10;99.90
20041;DHT22;10181;48.072;9.884;2024-03-25T02:20:58;2.10;99.90
20041;DHT22;10181;48.072;9.884;2024-03-25T02:23:24;2.10;99.90
20041;DHT22;10181;48.072;9.884;2024-03-25T02:25:51;2.20;99.90
20041;DHT22;10181;48.072;9.884;2024-03-25T02:28:17;2.20;99.90
20041;DHT22;10181;48.072;9.884;2024-03-25T02:30:43;2.20;99.90
20041;DHT22;10181;48.072;9.884;2024-03-25T02:33:08;2.20;99.90
20041;DHT22;10181;48.072;9.884;2024-03-25T02:35:34;2.20;99.90
20041;DHT22;10181;48.072;9.884;2024-03-25T02:38:01;2.20;99.90
20041;DHT22;10181;48.072;9.884;2024-03-25T02:40:27;2.20;99.90
20041;DHT22;10181;48.072;9.884;2024-03-25T02:42:53;2.20;99.90
20041;DHT22;10181;48.072;9.884;2024-03-25T02:45:18;2.20;99.90
20041;DHT22;10181;48.072;9.884;2024-03-25T02:47:46;2.20;99.90
20041;DHT22;10181;48.072;9.884;2024-03-25T02:50:12;2.20;99.90
20041;DHT22;10181;48.072;9.884;2024-03-25T02:52:37;2.20;99.90
20041;DHT22;10181;48.072;9.884;2024-03-25T02:55:03;2.10;99.90
20041;DHT22;10181;48.072;9.884;2024-03-25T02:57:29;2.10;99.90
20041;DHT22;10181;48.072;9.884;2024-03-25T02:59:54;2.10;99.90
20041;DHT22;10181;48.072;9.884;2024-03-25T03:02:20;2.00;99.90
20041;DHT22;10181;48.072;9.884;2024-03-25T03:04:46;2.00;99.90
20041;DHT22;10181;48.072;9.884;2024-03-25T03:07:12;2.10;99.90
20041;DHT22;10181;48.072;9.884;2024-03-25T03:09:37;2.10;99.90
20041;DHT22;10181;48.072;9.884;2024-03-25T03:12:03;2.10;99.90
20041;DHT22;10181;48.072;9.884;2024-03-25T03:14:29;2.00;99.90
20041;DHT22;10181;48.072;9.884;2024-03-25T03:16:54;2.00;99.90
20041;DHT22;10181;48.072;9.884;2024-03-25T03:19:26;2.00;99.90
20041;DHT22;10181;48.072;9.884;2024-03-25T03:21:52;2.00;99.90
20041;DHT22;10181;48.072;9.884;2024-03-25T03:24:17;2.00;99.90
20041;DHT22;10181;48.072;9.884;2024-03-25T03:26:44;2.00;99.90
20041;DHT22;10181;48.072;9.884;2024-03-25T03:29:09;2.00;99.90
20041;DHT22;10181;48.072;9.884;2024-03-25T03:31:35;1.90;99.90
20041;DHT22;10181;48.072;9.884;2024-03-25T03:34:01;1.90;99.90
20041;DHT22;10181;48.072;9.884;2024-03-25T03:36:26;1.90;99.90
20041;DHT22;10181;48.072;9.884;2024-03-25T03:38:52;2.00;99.90
20041;DHT22;10181;48.072;9.884;2024-03-25T03:41:18;1.90;99.90
20041;DHT22;10181;48.072;9.884;2024-03-25T03:43:44;1.90;99.90
20041;DHT22;10181;48.072;9.884;2024-03-25T03:46:09;1.90;99.90
20041;DHT22;10181;48.072;9.884;2024-03-25T03:48:35;1.90;99.90
20041;DHT22;10181;48.072;9.884;2024-03-25T03:51:02;1.80;99.90
20041;DHT22;10181;48.072;9.884;2024-03-25T03:53:28;1.90;99.90
20041;DHT22;10181;48.072;9.884;2024-03-25T03:55:58;1.80;99.90
20041;DHT22;10181;48.072;9.884;2024-03-25T03:58:25;1.80;99.90
20041;DHT22;10181;48.072;9.884;2024-03-25T04:00:51;1.80;99.90
20041;DHT22;10181;48.072;9.884;2024-03-25T04:03:17;1.80;99.90
20041;DHT22;10181;48.072;9.884;2024-03-25T04:05:43;1.80;99.90
20041;DHT22;10181;48.072;9.884;2024-03-25T04:08:09;1.80;99.90
20041;DHT22;10181;48.072;9.884;2024-03-25T04:10:35;1.80;99.90
20041;DHT22;10181;48.072;9.884;2024-03-25T04:13:02;1.80;99.90
20041;DHT22;10181;48.072;9.884;2024-03-25T04:15:27;1.70;99.90
20041;DHT22;10181;48.072;9.884;2024-03-25T04:17:53;1.70;99.90
20041;DHT22;10181;48.072;9.884;2024-03-25T04:20:19;1.70;99.90
20041;DHT22;10181;48.072;9.884;2024-03-25T04:22:45;1.70;99.90
20041;DHT22;10181;48.072;9.884;2024-03-25T04:25:12;1.70;99.90
20041;DHT22;10181;48.072;9.884;2024-03-25T04:27:44;1.60;99.90
20041;DHT22;10181;48.072;9.884;2024-03-25T04:30:11;1.60;99.90
20041;DHT22;10181;48.072;9.884;2024-03-25T04:32:38;1.60;99.90
20041;DHT22;10181;48.072;9.884;2024-03-25T04:35:05;1.60;99.90
20041;DHT22;10181;48.072;9.884;2024-03-25T04:37:32;1.60;99.90
20041;DHT22;10181;48.072;9.884;2024-03-25T04:39:58;1.70;99.90
20041;DHT22;10181;48.072;9.884;2024-03-25T04:42:24;1.60;99.90
20041;DHT22;10181;48.072;9.884;2024-03-25T04:44:49;1.60;99.90
20041;DHT22;10181;48.072;9.884;2024-03-25T04:47:16;1.60;99.90
20041;DHT22;10181;48.072;9.884;2024-03-25T04:49:42;1.50;99.90
20041;DHT22;10181;48.072;9.884;2024-03-25T04:52:08;1.50;99.90
20041;DHT22;10181;48.072;9.884;2024-03-25T04:54:34;1.50;99.90
20041;DHT22;10181;48.072;9.884;2024-03-25T04:56:59;1.50;99.90
20041;DHT22;10181;48.072;9.884;2024-03-25T04:59:25;1.40;99.90
20041;DHT22;10181;48.072;9.884;2024-03-25T05:01:52;1.50;99.90
20041;DHT22;10181;48.072;9.884;2024-03-25T05:04:20;1.50;99.90
20041;DHT22;10181;48.072;9.884;2024-03-25T05:06:46;1.50;99.90
20041;DHT22;10181;48.072;9.884;2024-03-25T05:09:12;1.60;99.90
20041;DHT22;10181;48.072;9.884;2024-03-25T05:11:37;1.60;99.90
20041;DHT22;10181;48.072;9.884;2024-03-25T05:14:03;1.60;99.90
20041;DHT22;10181;48.072;9.884;2024-03-25T05:16:28;1.70;99.90
20041;DHT22;10181;48.072;9.884;2024-03-25T05:18:54;1.70;99.90
20041;DHT22;10181;48.072;9.884;2024-03-25T05:21:20;1.50;99.90
20041;DHT22;10181;48.072;9.884;2024-03-25T05:23:45;1.50;99.90
20041;DHT22;10181;48.072;9.884;2024-03-25T05:26:11;1.40;99.90
20041;DHT22;10181;48.072;9.884;2024-03-25T05:28:37;1.30;99.90
20041;DHT22;10181;48.072;9.884;2024-03-25T05:31:09;1.30;99.90
20041;DHT22;10181;48.072;9.884;2024-03-25T05:33:35;1.30;99.90
20041;DHT22;10181;48.072;9.884;2024-03-25T05:36:01;1.40;99.90
20041;DHT22;10181;48.072;9.884;2024-03-25T05:38:27;1.40;99.90
20041;DHT22;10181;48.072;9.884;2024-03-25T05:40:53;1.40;99.90
20041;DHT22;10181;48.072;9.884;2024-03-25T05:43:19;1.40;99.90
20041;DHT22;10181;48.072;9.884;2024-03-25T05:45:55;1.50;99.90
20041;DHT22;10181;48.072;9.884;2024-03-25T05:48:21;1.50;99.90
20041;DHT22;10181;48.072;9.884;2024-03-25T05:53:24;1.50;99.90
20041;DHT22;10181;48.072;9.884;2024-03-25T05:55:50;1.50;99.90
20041;DHT22;10181;48.072;9.884;2024-03-25T05:58:16;1.60;99.90
20041;DHT22;10181;48.072;9.884;2024-03-25T06:00:41;1.60;99.90
20041;DHT22;10181;48.072;9.884;2024-03-25T06:03:07;1.60;99.90
20041;DHT22;10181;48.072;9.884;2024-03-25T06:05:33;1.70;99.90
20041;DHT22;10181;48.072;9.884;2024-03-25T06:07:58;1.70;99.90
20041;DHT22;10181;48.072;9.884;2024-03-25T06:10:24;1.70;99.90
20041;DHT22;10181;48.072;9.884;2024-03-25T06:12:50;1.70;99.90
20041;DHT22;10181;48.072;9.884;2024-03-25T06:15:15;1.80;99.90
20041;DHT22;10181;48.072;9.884;2024-03-25T06:17:41;1.80;99.90
20041;DHT22;10181;48.072;9.884;2024-03-25T06:20:07;1.90;99.90
20041;DHT22;10181;48.072;9.884;2024-03-25T06:22:33;2.00;99.90
20041;DHT22;10181;48.072;9.884;2024-03-25T06:24:58;2.00;99.90
20041;DHT22;10181;48.072;9.884;2024-03-25T06:27:24;2.10;99.90
20041;DHT22;10181;48.072;9.884;2024-03-25T06:29:50;2.10;99.90
20041;DHT22;10181;48.072;9.884;2024-03-25T06:32:35;2.20;99.90
20041;DHT22;10181;48.072;9.884;2024-03-25T06:35:19;2.20;99.90
20041;DHT22;10181;48.072;9.884;2024-03-25T06:37:45;2.20;99.90
20041;DHT22;10181;48.072;9.884;2024-03-25T06:40:11;2.30;99.90
20041;DHT22;10181;48.072;9.884;2024-03-25T06:42:37;2.30;99.90
20041;DHT22;10181;48.072;9.884;2024-03-25T06:45:03;2.40;99.90
20041;DHT22;10181;48.072;9.884;2024-03-25T06:47:29;2.40;99.90
20041;DHT22;10181;48.072;9.884;2024-03-25T06:49:54;2.50;99.90
20041;DHT22;10181;48.072;9.884;2024-03-25T06:52:20;2.50;99.90
20041;DHT22;10181;48.072;9.884;2024-03-25T06:54:45;2.50;99.90
20041;DHT22;10181;48.072;9.884;2024-03-25T06:57:11;2.60;99.90
20041;DHT22;10181;48.072;9.884;2024-03-25T06:59:37;2.70;99.90
20041;DHT22;10181;48.072;9.884;2024-03-25T07:02:02;2.80;99.90
20041;DHT22;10181;48.072;9.884;2024-03-25T07:04:28;2.80;99.90
20041;DHT22;10181;48.072;9.884;2024-03-25T07:06:54;2.80;99.90
20041;DHT22;10181;48.072;9.884;2024-03-25T07:09:19;2.80;99.90
20041;DHT22;10181;48.072;9.884;2024-03-25T07:11:46;2.80;99.90
20041;DHT22;10181;48.072;9.884;2024-03-25T07:14:12;2.80;99.90
20041;DHT22;10181;48.072;9.884;2024-03-25T07:16:37;2.80;99.90
20041;DHT22;10181;48.072;9.884;2024-03-25T07:19:03;2.80;99.90
20041;DHT22;10181;48.072;9.884;2024-03-25T07:21:29;2.80;99.90
20041;DHT22;10181;48.072;9.884;2024-03-25T07:23:55;2.90;99.90
20041;DHT22;10181;48.072;9.884;2024-03-25T07:26:20;3.00;99.90
20041;DHT22;10181;48.072;9.884;2024-03-25T07:28:46;3.00;99.90
20041;DHT22;10181;48.072;9.884;2024-03-25T07:31:11;3.20;99.90
20041;DHT22;10181;48.072;9.884;2024-03-25T07:33:37;3.30;99.90
20041;DHT22;10181;48.072;9.884;2024-03-25T07:36:03;3.40;99.90
20041;DHT22;10181;48.072;9.884;2024-03-25T07:38:28;3.40;99.90
20041;DHT22;10181;48.072;9.884;2024-03-25T07:40:54;3.40;99.90
20041;DHT22;10181;48.072;9.884;2024-03-25T07:43:19;3.40;99.90
20041;DHT22;10181;48.072;9.884;2024-03-25T07:45:45;3.50;99.90
20041;DHT22;10181;48.072;9.884;2024-03-25T07:48:10;3.60;99.90
20041;DHT22;10181;48.072;9.884;2024-03-25T07:50:36;3.70;99.90
20041;DHT22;10181;48.072;9.884;2024-03-25T07:53:02;3.80;99.90
20041;DHT22;10181;48.072;9.884;2024-03-25T07:55:27;3.90;99.90
20041;DHT22;10181;48.072;9.884;2024-03-25T07:57:53;3.90;99.90
20041;DHT22;10181;48.072;9.884;2024-03-25T08:00:19;3.90;99.90
20041;DHT22;10181;48.072;9.884;2024-03-25T08:02:44;3.90;99.90
20041;DHT22;10181;48.072;9.884;2024-03-25T08:05:10;3.90;99.90
20041;DHT22;10181;48.072;9.884;2024-03-25T08:07:35;4.00;99.90
20041;DHT22;10181;48.072;9.884;2024-03-25T08:10:01;4.20;99.90
20041;DHT22;10181;48.072;9.884;2024-03-25T08:12:26;4.30;99.90
20041;DHT22;10181;48.072;9.884;2024-03-25T08:14:52;4.30;99.90
20041;DHT22;10181;48.072;9.884;2024-03-25T08:17:17;4.50;99.90
20041;DHT22;10181;48.072;9.884;2024-03-25T08:19:43;4.50;99.90
20041;DHT22;10181;48.072;9.884;2024-03-25T08:22:09;4.50;99.90
20041;DHT22;10181;48.072;9.884;2024-03-25T08:24:35;4.60;99.90
20041;DHT22;10181;48.072;9.884;2024-03-25T08:27:00;4.80;99.90
20041;DHT22;10181;48.072;9.884;2024-03-25T08:29:26;5.00;99.90
20041;DHT22;10181;48.072;9.884;2024-03-25T08:31:51;5.20;99.90
20041;DHT22;10181;48.072;9.884;2024-03-25T08:34:17;5.30;99.90
20041;DHT22;10181;48.072;9.884;2024-03-25T08:36:42;5.40;99.90
20041;DHT22;10181;48.072;9.884;2024-03-25T08:39:08;5.40;99.90
20041;DHT22;10181;48.072;9.884;2024-03-25T08:41:33;5.40;99.90
20041;DHT22;10181;48.072;9.884;2024-03-25T08:43:59;5.60;99.90
20041;DHT22;10181;48.072;9.884;2024-03-25T08:46:24;5.80;99.90
20041;DHT22;10181;48.072;9.884;2024-03-25T08:48:50;6.00;99.90
20041;DHT22;10181;48.072;9.884;2024-03-25T08:51:16;6.20;99.90
20041;DHT22;10181;48.072;9.884;2024-03-25T08:53:41;6.30;99.90
20041;DHT22;10181;48.072;9.884;2024-03-25T08:56:07;6.50;99.90
20041;DHT22;10181;48.072;9.884;2024-03-25T08:58:32;6.60;99.90
20041;DHT22;10181;48.072;9.884;2024-03-25T09:00:58;6.70;99.90
20041;DHT22;10181;48.072;9.884;2024-03-25T09:03:23;6.80;99.90
20041;DHT22;10181;48.072;9.884;2024-03-25T09:05:49;7.20;99.90
20041;DHT22;10181;48.072;9.884;2024-03-25T09:08:15;7.00;99.90
20041;DHT22;10181;48.072;9.884;2024-03-25T09:10:43;7.00;99.90
20041;DHT22;10181;48.072;9.884;2024-03-25T09:13:28;6.80;99.80
20041;DHT22;10181;48.072;9.884;2024-03-25T09:15:54;6.80;99.90
20041;DHT22;10181;48.072;9.884;2024-03-25T09:18:20;6.80;99.90
20041;DHT22;10181;48.072;9.884;2024-03-25T09:20:46;7.00;99.90
20041;DHT22;10181;48.072;9.884;2024-03-25T09:23:11;7.20;99.90
20041;DHT22;10181;48.072;9.884;2024-03-25T09:25:37;7.30;99.90
20041;DHT22;10181;48.072;9.884;2024-03-25T09:28:03;7.40;99.90
20041;DHT22;10181;48.072;9.884;2024-03-25T09:30:29;7.30;99.90
20041;DHT22;10181;48.072;9.884;2024-03-25T09:32:54;7.20;98.60
20041;DHT22;10181;48.072;9.884;2024-03-25T09:35:21;7.30;99.90
20041;DHT22;10181;48.072;9.884;2024-03-25T09:37:46;7.20;97.10
20041;DHT22;10181;48.072;9.884;2024-03-25T09:40:12;7.20;99.90
20041;DHT22;10181;48.072;9.884;2024-03-25T09:42:49;7.50;99.90
20041;DHT22;10181;48.072;9.884;2024-03-25T09:45:18;7.60;99.90
20041;DHT22;10181;48.072;9.884;2024-03-25T09:47:49;7.70;99.90
20041;DHT22;10181;48.072;9.884;2024-03-25T09:50:20;7.60;99.90
20041;DHT22;10181;48.072;9.884;2024-03-25T09:52:49;7.50;99.90
20041;DHT22;10181;48.072;9.884;2024-03-25T09:55:14;7.50;99.90
20041;DHT22;10181;48.072;9.884;2024-03-25T09:57:42;7.60;99.90
20041;DHT22;10181;48.072;9.884;2024-03-25T10:00:08;7.80;99.90
20041;DHT22;10181;48.072;9.884;2024-03-25T10:02:38;7.90;99.90
20041;DHT22;10181;48.072;9.884;2024-03-25T10:05:05;8.00;99.90
20041;DHT22;10181;48.072;9.884;2024-03-25T10:07:32;8.00;95.50
20041;DHT22;10181;48.072;9.884;2024-03-25T10:09:58;7.70;93.80
20041;DHT22;10181;48.072;9.884;2024-03-25T10:12:24;7.50;97.80
20041;DHT22;10181;48.072;9.884;2024-03-25T10:14:50;7.60;97.20
20041;DHT22;10181;48.072;9.884;2024-03-25T10:17:15;7.60;94.10
20041;DHT22;10181;48.072;9.884;2024-03-25T10:19:41;7.50;94.40
20041;DHT22;10181;48.072;9.884;2024-03-25T10:22:08;7.50;95.40
20041;DHT22;10181;48.072;9.884;2024-03-25T10:24:44;7.60;96.50
20041;DHT22;10181;48.072;9.884;2024-03-25T10:27:17;7.70;94.80
20041;DHT22;10181;48.072;9.884;2024-03-25T10:29:43;7.80;96.80
20041;DHT22;10181;48.072;9.884;2024-03-25T10:32:09;7.90;96.80
20041;DHT22;10181;48.072;9.884;2024-03-25T10:34:34;7.90;96.90
20041;DHT22;10181;48.072;9.884;2024-03-25T10:37:01;8.10;97.20
20041;DHT22;10181;48.072;9.884;2024-03-25T10:39:31;8.00;94.30
20041;DHT22;10181;48.072;9.884;2024-03-25T10:41:58;8.00;94.60
20041;DHT22;10181;48.072;9.884;2024-03-25T10:44:29;7.90;94.90
20041;DHT22;10181;48.072;9.884;2024-03-25T10:47:03;7.80;94.60
20041;DHT22;10181;48.072;9.884;2024-03-25T10:49:41;7.80;93.80
20041;DHT22;10181;48.072;9.884;2024-03-25T10:52:11;7.80;95.80
20041;DHT22;10181;48.072;9.884;2024-03-25T10:54:39;7.80;96.90
20041;DHT22;10181;48.072;9.884;2024-03-25T10:57:06;7.70;94.20
20041;DHT22;10181;48.072;9.884;2024-03-25T10:59:32;7.90;96.60
20041;DHT22;10181;48.072;9.884;2024-03-25T11:02:03;7.80;94.40
20041;DHT22;10181;48.072;9.884;2024-03-25T11:04:29;7.80;96.00
20041;DHT22;10181;48.072;9.884;2024-03-25T11:07:07;8.00;95.30
20041;DHT22;10181;48.072;9.884;2024-03-25T11:09:32;8.00;95.80
20041;DHT22;10181;48.072;9.884;2024-03-25T11:11:58;8.20;97.10
20041;DHT22;10181;48.072;9.884;2024-03-25T11:14:27;8.40;95.60
20041;DHT22;10181;48.072;9.884;2024-03-25T11:16:54;8.50;94.70
20041;DHT22;10181;48.072;9.884;2024-03-25T11:19:20;8.70;94.70
20041;DHT22;10181;48.072;9.884;2024-03-25T11:21:50;8.70;93.20
20041;DHT22;10181;48.072;9.884;2024-03-25T11:24:25;8.70;92.80
20041;DHT22;10181;48.072;9.884;2024-03-25T11:26:53;8.60;94.40
20041;DHT22;10181;48.072;9.884;2024-03-25T11:29:21;8.70;93.00
20041;DHT22;10181;48.072;9.884;2024-03-25T11:31:49;8.70;92.60
20041;DHT22;10181;48.072;9.884;2024-03-25T11:34:15;8.90;94.90
20041;DHT22;10181;48.072;9.884;2024-03-25T11:36:41;9.20;96.10
20041;DHT22;10181;48.072;9.884;2024-03-25T11:39:07;9.20;91.30
20041;DHT22;10181;48.072;9.884;2024-03-25T11:41:40;9.20;93.70
20041;DHT22;10181;48.072;9.884;2024-03-25T11:44:08;9.30;93.10
20041;DHT22;10181;48.072;9.884;2024-03-25T11:46:36;9.30;92.20
20041;DHT22;10181;48.072;9.884;2024-03-25T11:49:02;9.60;92.30
20041;DHT22;10181;48.072;9.884;2024-03-25T11:51:28;9.90;93.70
20041;DHT22;10181;48.072;9.884;2024-03-25T11:53:53;10.10;91.00
20041;DHT22;10181;48.072;9.884;2024-03-25T11:56:19;10.70;94.00
20041;DHT22;10181;48.072;9.884;2024-03-25T11:58:45;11.20;94.40
20041;DHT22;10181;48.072;9.884;2024-03-25T12:01:11;11.50;92.30
20041;DHT22;10181;48.072;9.884;2024-03-25T12:03:37;12.00;97.50
20041;DHT22;10181;48.072;9.884;2024-03-25T12:06:02;12.70;96.30
20041;DHT22;10181;48.072;9.884;2024-03-25T12:08:28;12.80;93.50
20041;DHT22;10181;48.072;9.884;2024-03-25T12:10:56;13.20;96.70
20041;DHT22;10181;48.072;9.884;2024-03-25T12:13:40;13.60;95.40
20041;DHT22;10181;48.072;9.884;2024-03-25T12:16:08;13.60;87.70
20041;DHT22;10181;48.072;9.884;2024-03-25T12:18:35;13.40;97.80
20041;DHT22;10181;48.072;9.884;2024-03-25T12:21:01;14.10;95.40
20041;DHT22;10181;48.072;9.884;2024-03-25T12:23:32;14.50;98.20
20041;DHT22;10181;48.072;9.884;2024-03-25T12:25:59;14.90;97.20
20041;DHT22;10181;48.072;9.884;2024-03-25T12:28:25;15.60;93.60
20041;DHT22;10181;48.072;9.884;2024-03-25T12:30:52;16.20;93.80
20041;DHT22;10181;48.072;9.884;2024-03-25T12:33:19;15.90;92.90
20041;DHT22;10181;48.072;9.884;2024-03-25T12:35:49;15.80;93.70
20041;DHT22;10181;48.072;9.884;2024-03-25T12:38:28;15.70;93.10
20041;DHT22;10181;48.072;9.884;2024-03-25T12:40:54;16.00;91.10
20041;DHT22;10181;48.072;9.884;2024-03-25T12:43:28;16.20;90.70
20041;DHT22;10181;48.072;9.884;2024-03-25T12:45:54;16.20;93.40
20041;DHT22;10181;48.072;9.884;2024-03-25T12:48:20;16.20;94.00
20041;DHT22;10181;48.072;9.884;2024-03-25T12:50:45;16.50;93.50
20041;DHT22;10181;48.072;9.884;2024-03-25T12:53:17;16.90;90.00
20041;DHT22;10181;48.072;9.884;2024-03-25T12:55:43;17.10;94.00
20041;DHT22;10181;48.072;9.884;2024-03-25T12:58:09;16.90;93.10
20041;DHT22;10181;48.072;9.884;2024-03-25T13:00:34;16.90;89.70
20041;DHT22;10181;48.072;9.884;2024-03-25T13:03:00;16.80;92.00
20041;DHT22;10181;48.072;9.884;2024-03-25T13:05:27;16.70;92.70
20041;DHT22;10181;48.072;9.884;2024-03-25T13:07:54;16.70;92.50
20041;DHT22;10181;48.072;9.884;2024-03-25T13:10:20;16.30;93.10
20041;DHT22;10181;48.072;9.884;2024-03-25T13:12:46;16.10;91.60
20041;DHT22;10181;48.072;9.884;2024-03-25T13:15:13;16.00;91.40
20041;DHT22;10181;48.072;9.884;2024-03-25T13:17:38;15.80;91.00
20041;DHT22;10181;48.072;9.884;2024-03-25T13:20:04;15.70;87.70
20041;DHT22;10181;48.072;9.884;2024-03-25T13:22:30;16.00;90.30
20041;DHT22;10181;48.072;9.884;2024-03-25T13:25:00;16.00;90.90
20041;DHT22;10181;48.072;9.884;2024-03-25T13:27:26;16.10;91.10
20041;DHT22;10181;48.072;9.884;2024-03-25T13:29:52;16.20;88.50
20041;DHT22;10181;48.072;9.884;2024-03-25T13:32:21;16.10;90.90
20041;DHT22;10181;48.072;9.884;2024-03-25T13:34:47;15.90;88.40
20041;DHT22;10181;48.072;9.884;2024-03-25T13:37:12;15.50;86.80
20041;DHT22;10181;48.072;9.884;2024-03-25T13:39:38;14.80;91.20
20041;DHT22;10181;48.072;9.884;2024-03-25T13:42:04;14.60;86.90
20041;DHT22;10181;48.072;9.884;2024-03-25T13:44:30;14.40;91.60
20041;DHT22;10181;48.072;9.884;2024-03-25T13:46:56;14.20;89.90
20041;DHT22;10181;48.072;9.884;2024-03-25T13:49:21;14.10;89.20
20041;DHT22;10181;48.072;9.884;2024-03-25T13:51:51;13.90;92.50
20041;DHT22;10181;48.072;9.884;2024-03-25T13:54:21;13.90;92.40
20041;DHT22;10181;48.072;9.884;2024-03-25T13:56:47;14.20;92.50
20041;DHT22;10181;48.072;9.884;2024-03-25T13:59:12;14.40;91.10
20041;DHT22;10181;48.072;9.884;2024-03-25T14:01:38;14.60;89.80
20041;DHT22;10181;48.072;9.884;2024-03-25T14:04:05;14.30;91.10
20041;DHT22;10181;48.072;9.884;2024-03-25T14:06:30;14.00;89.50
20041;DHT22;10181;48.072;9.884;2024-03-25T14:08:58;13.60;85.80
20041;DHT22;10181;48.072;9.884;2024-03-25T14:11:24;13.20;91.60
20041;DHT22;10181;48.072;9.884;2024-03-25T14:13:50;13.00;90.40
20041;DHT22;10181;48.072;9.884;2024-03-25T14:16:16;12.80;89.10
20041;DHT22;10181;48.072;9.884;2024-03-25T14:18:41;12.80;89.90
20041;DHT22;10181;48.072;9.884;2024-03-25T14:21:07;13.10;91.40
20041;DHT22;10181;48.072;9.884;2024-03-25T14:23:32;13.50;89.00
20041;DHT22;10181;48.072;9.884;2024-03-25T14:25:58;13.80;86.70
20041;DHT22;10181;48.072;9.884;2024-03-25T14:28:24;14.00;86.60
20041;DHT22;10181;48.072;9.884;2024-03-25T14:30:49;14.00;85.80
20041;DHT22;10181;48.072;9.884;2024-03-25T14:33:15;14.00;82.90
20041;DHT22;10181;48.072;9.884;2024-03-25T14:35:41;14.00;82.20
20041;DHT22;10181;48.072;9.884;2024-03-25T14:38:07;13.70;85.00
20041;DHT22;10181;48.072;9.884;2024-03-25T14:40:32;13.70;82.40
20041;DHT22;10181;48.072;9.884;2024-03-25T14:43:02;13.80;83.70
20041;DHT22;10181;48.072;9.884;2024-03-25T14:45:28;13.80;81.20
20041;DHT22;10181;48.072;9.884;2024-03-25T14:47:55;13.60;82.50
20041;DHT22;10181;48.072;9.884;2024-03-25T14:50:21;13.30;83.20
20041;DHT22;10181;48.072;9.884;2024-03-25T14:52:46;12.90;84.10
20041;DHT22;10181;48.072;9.884;2024-03-25T14:55:12;12.60;84.60
20041;DHT22;10181;48.072;9.884;2024-03-25T14:57:37;12.40;84.70
20041;DHT22;10181;48.072;9.884;2024-03-25T15:00:03;12.20;85.30
20041;DHT22;10181;48.072;9.884;2024-03-25T15:02:30;12.00;87.30
20041;DHT22;10181;48.072;9.884;2024-03-25T15:04:56;11.90;88.80
20041;DHT22;10181;48.072;9.884;2024-03-25T15:07:21;11.80;83.80
20041;DHT22;10181;48.072;9.884;2024-03-25T15:09:47;11.90;86.60
20041;DHT22;10181;48.072;9.884;2024-03-25T15:12:13;12.00;86.00
20041;DHT22;10181;48.072;9.884;2024-03-25T15:14:38;12.20;84.90
20041;DHT22;10181;48.072;9.884;2024-03-25T15:17:04;12.50;84.90
20041;DHT22;10181;48.072;9.884;2024-03-25T15:19:29;12.40;81.90
20041;DHT22;10181;48.072;9.884;2024-03-25T15:21:55;12.60;84.10
20041;DHT22;10181;48.072;9.884;2024-03-25T15:24:20;12.90;83.60
20041;DHT22;10181;48.072;9.884;2024-03-25T15:26:47;13.10;83.20
20041;DHT22;10181;48.072;9.884;2024-03-25T15:29:13;13.50;81.30
20041;DHT22;10181;48.072;9.884;2024-03-25T15:31:38;14.10;81.20
20041;DHT22;10181;48.072;9.884;2024-03-25T15:34:04;14.60;79.00
20041;DHT22;10181;48.072;9.884;2024-03-25T15:36:30;15.30;78.40
20041;DHT22;10181;48.072;9.884;2024-03-25T15:38:56;15.80;76.90
20041;DHT22;10181;48.072;9.884;2024-03-25T15:41:22;16.30;76.50